sensor_id;sensor_type;location;lat;lon;timestamp;P1;durP1;ratioP1;P2;durP2;ratioP2
10509;SDS011;5303;53.266;10.410;2022-10-17T00:01:08;5.73;;;4.30;;
10509;SDS011;5303;53.266;10.410;2022-10-17T00:03:34;6.83;;;4.30;;
10509;SDS011;5303;53.266;10.410;2022-10-17T00:06:05;5.30;;;4.30;;
10509;SDS011;5303;53.266;10.410;2022-10-17T00:08:32;6.77;;;3.97;;
10509;SDS011;5303;53.266;10.410;2022-10-17T00:10:58;6.57;;;4.10;;
10509;SDS011;5303;53.266;10.410;2022-10-17T00:13:25;4.47;;;3.90;;
10509;SDS011;5303;53.266;10.410;2022-10-17T00:15:51;4.60;;;4.17;;
10509;SDS011;5303;53.266;10.410;2022-10-17T00:18:16;5.60;;;4.20;;
10509;SDS011;5303;53.266;10.410;2022-10-17T00:20:42;6.63;;;4.20;;
10509;SDS011;5303;53.266;10.410;2022-10-17T00:23:07;6.50;;;4.30;;
10509;SDS011;5303;53.266;10.410;2022-10-17T00:25:32;4.33;;;3.93;;
10509;SDS011;5303;53.266;10.410;2022-10-17T00:27:58;4.93;;;4.10;;
10509;SDS011;5303;53.266;10.410;2022-10-17T00:30:23;5.10;;;3.90;;
10509;SDS011;5303;53.266;10.410;2022-10-17T00:32:48;3.93;;;3.60;;
10509;SDS011;5303;53.266;10.410;2022-10-17T00:35:14;6.17;;;4.23;;
10509;SDS011;5303;53.266;10.410;2022-10-17T00:37:39;5.23;;;4.43;;
10509;SDS011;5303;53.266;10.410;2022-10-17T00:40:04;5.77;;;4.63;;
10509;SDS011;5303;53.266;10.410;2022-10-17T00:42:31;4.40;;;4.00;;
10509;SDS011;5303;53.266;10.410;2022-10-17T00:44:58;4.77;;;4.07;;
10509;SDS011;5303;53.266;10.410;2022-10-17T00:47:23;4.80;;;4.33;;
10509;SDS011;5303;53.266;10.410;2022-10-17T00:49:49;4.97;;;4.23;;
10509;SDS011;5303;53.266;10.410;2022-10-17T00:52:15;4.27;;;3.87;;
10509;SDS011;5303;53.266;10.410;2022-10-17T00:54:48;4.53;;;4.10;;
10509;SDS011;5303;53.266;10.410;2022-10-17T00:57:18;4.33;;;3.73;;
10509;SDS011;5303;53.266;10.410;2022-10-17T00:59:44;6.20;;;4.70;;
10509;SDS011;5303;53.266;10.410;2022-10-17T01:02:16;4.50;;;4.10;;
10509;SDS011;5303;53.266;10.410;2022-10-17T01:04:43;5.07;;;4.17;;
10509;SDS011;5303;53.266;10.410;2022-10-17T01:07:10;5.30;;;4.03;;
10509;SDS011;5303;53.266;10.410;2022-10-17T01:09:36;4.53;;;4.13;;
10509;SDS011;5303;53.266;10.410;2022-10-17T01:20:26;5.53;;;4.53;;
10509;SDS011;5303;53.266;10.410;2022-10-17T01:31:31;5.57;;;4.57;;
10509;SDS011;5303;53.266;10.410;2022-10-17T01:36:47;5.90;;;5.30;;
10509;SDS011;5303;53.266;10.410;2022-10-17T01:42:22;5.50;;;4.47;;
10509;SDS011;5303;53.266;10.410;2022-10-17T01:44:55;5.60;;;4.53;;
10509;SDS011;5303;53.266;10.410;2022-10-17T01:47:25;4.43;;;3.97;;
10509;SDS011;5303;53.266;10.410;2022-10-17T01:49:54;7.60;;;4.90;;
10509;SDS011;5303;53.266;10.410;2022-10-17T01:52:25;4.60;;;4.20;;
10509;SDS011;5303;53.266;10.410;2022-10-17T01:54:55;5.40;;;4.30;;
10509;SDS011;5303;53.266;10.410;2022-10-17T01:57:32;5.03;;;4.27;;
10509;SDS011;5303;53.266;10.410;2022-10-17T02:00:03;8.00;;;3.93;;
10509;SDS011;5303;53.266;10.410;2022-10-17T02:02:30;4.90;;;3.97;;
10509;SDS011;5303;53.266;10.410;2022-10-17T02:04:57;4.97;;;3.90;;
10509;SDS011;5303;53.266;10.410;2022-10-17T02:07:22;3.20;;;2.90;;
10509;SDS011;5303;53.266;10.410;2022-10-17T02:09:48;3.73;;;3.43;;
10509;SDS011;5303;53.266;10.410;2022-10-17T02:25:54;4.10;;;3.73;;
10509;SDS011;5303;53.266;10.410;2022-10-17T02:31:14;4.60;;;3.70;;
10509;SDS011;5303;53.266;10.410;2022-10-17T02:36:15;4.77;;;3.50;;
10509;SDS011;5303;53.266;10.410;2022-10-17T02:38:44;3.90;;;3.43;;
10509;SDS011;5303;53.266;10.410;2022-10-17T02:41:12;5.40;;;3.30;;
10509;SDS011;5303;53.266;10.410;2022-10-17T02:43:40;3.80;;;3.40;;
10509;SDS011;5303;53.266;10.410;2022-10-17T02:46:09;3.90;;;3.20;;
10509;SDS011;5303;53.266;10.410;2022-10-17T02:48:37;3.57;;;3.27;;
10509;SDS011;5303;53.266;10.410;2022-10-17T02:51:10;3.60;;;3.30;;
10509;SDS011;5303;53.266;10.410;2022-10-17T02:53:51;4.60;;;3.87;;
10509;SDS011;5303;53.266;10.410;2022-10-17T02:56:21;3.90;;;3.47;;
10509;SDS011;5303;53.266;10.410;2022-10-17T02:58:47;4.27;;;3.20;;
10509;SDS011;5303;53.266;10.410;2022-10-17T03:01:17;3.83;;;3.10;;
10509;SDS011;5303;53.266;10.410;2022-10-17T03:03:43;4.20;;;3.33;;
10509;SDS011;5303;53.266;10.410;2022-10-17T03:06:09;4.17;;;3.33;;
10509;SDS011;5303;53.266;10.410;2022-10-17T03:08:34;3.67;;;3.23;;
10509;SDS011;5303;53.266;10.410;2022-10-17T03:10:59;3.33;;;3.03;;
10509;SDS011;5303;53.266;10.410;2022-10-17T03:13:25;3.50;;;3.20;;
10509;SDS011;5303;53.266;10.410;2022-10-17T03:15:50;3.37;;;3.07;;
10509;SDS011;5303;53.266;10.410;2022-10-17T03:18:15;3.70;;;3.30;;
10509;SDS011;5303;53.266;10.410;2022-10-17T03:20:40;4.30;;;3.70;;
10509;SDS011;5303;53.266;10.410;2022-10-17T03:23:06;4.77;;;4.00;;
10509;SDS011;5303;53.266;10.410;2022-10-17T03:25:33;4.40;;;4.00;;
10509;SDS011;5303;53.266;10.410;2022-10-17T03:27:58;4.27;;;3.63;;
10509;SDS011;5303;53.266;10.410;2022-10-17T03:30:25;4.47;;;3.70;;
10509;SDS011;5303;53.266;10.410;2022-10-17T03:32:51;4.07;;;3.77;;
10509;SDS011;5303;53.266;10.410;2022-10-17T03:35:16;4.30;;;3.90;;
10509;SDS011;5303;53.266;10.410;2022-10-17T03:37:41;3.70;;;3.17;;
10509;SDS011;5303;53.266;10.410;2022-10-17T03:40:07;5.07;;;3.70;;
10509;SDS011;5303;53.266;10.410;2022-10-17T03:42:32;4.07;;;3.40;;
10509;SDS011;5303;53.266;10.410;2022-10-17T03:44:57;4.07;;;3.30;;
10509;SDS011;5303;53.266;10.410;2022-10-17T03:47:23;4.20;;;3.10;;
10509;SDS011;5303;53.266;10.410;2022-10-17T03:49:48;3.23;;;2.93;;
10509;SDS011;5303;53.266;10.410;2022-10-17T03:52:14;4.77;;;2.90;;
10509;SDS011;5303;53.266;10.410;2022-10-17T03:54:39;3.23;;;2.80;;
10509;SDS011;5303;53.266;10.410;2022-10-17T03:57:05;3.27;;;2.83;;
10509;SDS011;5303;53.266;10.410;2022-10-17T03:59:30;3.43;;;2.90;;
10509;SDS011;5303;53.266;10.410;2022-10-17T04:01:55;4.87;;;3.30;;
10509;SDS011;5303;53.266;10.410;2022-10-17T04:04:21;3.97;;;3.30;;
10509;SDS011;5303;53.266;10.410;2022-10-17T04:06:46;4.10;;;3.20;;
10509;SDS011;5303;53.266;10.410;2022-10-17T04:09:11;3.30;;;3.00;;
10509;SDS011;5303;53.266;10.410;2022-10-17T04:11:37;2.93;;;2.73;;
10509;SDS011;5303;53.266;10.410;2022-10-17T04:14:02;3.27;;;2.83;;
10509;SDS011;5303;53.266;10.410;2022-10-17T04:16:28;3.63;;;2.90;;
10509;SDS011;5303;53.266;10.410;2022-10-17T04:18:54;3.90;;;3.13;;
10509;SDS011;5303;53.266;10.410;2022-10-17T04:21:21;5.37;;;2.90;;
10509;SDS011;5303;53.266;10.410;2022-10-17T04:23:51;3.03;;;2.70;;
10509;SDS011;5303;53.266;10.410;2022-10-17T04:26:17;3.80;;;2.60;;
10509;SDS011;5303;53.266;10.410;2022-10-17T04:28:42;3.47;;;2.77;;
10509;SDS011;5303;53.266;10.410;2022-10-17T04:31:09;3.50;;;3.20;;
10509;SDS011;5303;53.266;10.410;2022-10-17T04:33:36;5.27;;;3.30;;
10509;SDS011;5303;53.266;10.410;2022-10-17T04:36:20;3.37;;;3.07;;
10509;SDS011;5303;53.266;10.410;2022-10-17T04:38:47;2.93;;;2.70;;
10509;SDS011;5303;53.266;10.410;2022-10-17T04:41:13;4.00;;;3.43;;
10509;SDS011;5303;53.266;10.410;2022-10-17T04:43:40;4.67;;;3.27;;
10509;SDS011;5303;53.266;10.410;2022-10-17T04:46:07;4.90;;;4.17;;
10509;SDS011;5303;53.266;10.410;2022-10-17T04:48:38;5.70;;;3.90;;
10509;SDS011;5303;53.266;10.410;2022-10-17T04:54:25;4.13;;;3.73;;
10509;SDS011;5303;53.266;10.410;2022-10-17T04:56:50;4.63;;;4.07;;
10509;SDS011;5303;53.266;10.410;2022-10-17T04:59:16;4.13;;;3.70;;
10509;SDS011;5303;53.266;10.410;2022-10-17T05:01:41;3.87;;;3.37;;
10509;SDS011;5303;53.266;10.410;2022-10-17T05:04:06;4.30;;;3.90;;
10509;SDS011;5303;53.266;10.410;2022-10-17T05:06:31;4.40;;;3.67;;
10509;SDS011;5303;53.266;10.410;2022-10-17T05:08:57;4.43;;;4.00;;
10509;SDS011;5303;53.266;10.410;2022-10-17T05:11:24;4.47;;;3.97;;
10509;SDS011;5303;53.266;10.410;2022-10-17T05:13:51;3.80;;;3.00;;
10509;SDS011;5303;53.266;10.410;2022-10-17T05:16:18;3.37;;;3.07;;
10509;SDS011;5303;53.266;10.410;2022-10-17T05:18:46;4.07;;;2.73;;
10509;SDS011;5303;53.266;10.410;2022-10-17T05:24:33;3.30;;;3.00;;
10509;SDS011;5303;53.266;10.410;2022-10-17T05:26:59;3.17;;;2.73;;
10509;SDS011;5303;53.266;10.410;2022-10-17T05:29:24;3.10;;;2.80;;
10509;SDS011;5303;53.266;10.410;2022-10-17T05:31:49;3.53;;;2.80;;
10509;SDS011;5303;53.266;10.410;2022-10-17T05:34:14;4.70;;;4.20;;
10509;SDS011;5303;53.266;10.410;2022-10-17T05:36:40;4.77;;;4.27;;
10509;SDS011;5303;53.266;10.410;2022-10-17T05:39:05;4.20;;;3.80;;
10509;SDS011;5303;53.266;10.410;2022-10-17T05:41:30;6.47;;;3.83;;
10509;SDS011;5303;53.266;10.410;2022-10-17T05:43:55;3.50;;;3.10;;
10509;SDS011;5303;53.266;10.410;2022-10-17T05:46:21;4.53;;;3.30;;
10509;SDS011;5303;53.266;10.410;2022-10-17T05:48:46;4.13;;;3.70;;
10509;SDS011;5303;53.266;10.410;2022-10-17T05:51:11;4.97;;;3.67;;
10509;SDS011;5303;53.266;10.410;2022-10-17T05:53:38;5.93;;;3.27;;
10509;SDS011;5303;53.266;10.410;2022-10-17T05:56:05;4.17;;;3.40;;
10509;SDS011;5303;53.266;10.410;2022-10-17T05:58:32;5.37;;;3.20;;
10509;SDS011;5303;53.266;10.410;2022-10-17T06:00:59;5.30;;;3.00;;
10509;SDS011;5303;53.266;10.410;2022-10-17T06:03:26;4.70;;;3.63;;
10509;SDS011;5303;53.266;10.410;2022-10-17T06:05:52;6.60;;;3.47;;
10509;SDS011;5303;53.266;10.410;2022-10-17T06:08:18;4.93;;;3.60;;
10509;SDS011;5303;53.266;10.410;2022-10-17T06:10:46;4.70;;;3.20;;
10509;SDS011;5303;53.266;10.410;2022-10-17T06:13:13;3.43;;;3.13;;
10509;SDS011;5303;53.266;10.410;2022-10-17T06:15:38;4.60;;;3.60;;
10509;SDS011;5303;53.266;10.410;2022-10-17T06:18:03;5.63;;;3.83;;
10509;SDS011;5303;53.266;10.410;2022-10-17T06:20:29;9.73;;;3.77;;
10509;SDS011;5303;53.266;10.410;2022-10-17T06:22:54;4.60;;;4.20;;
10509;SDS011;5303;53.266;10.410;2022-10-17T06:25:19;6.73;;;3.93;;
10509;SDS011;5303;53.266;10.410;2022-10-17T06:27:44;9.23;;;5.40;;
10509;SDS011;5303;53.266;10.410;2022-10-17T06:30:10;5.10;;;4.50;;
10509;SDS011;5303;53.266;10.410;2022-10-17T06:32:35;5.47;;;4.30;;
10509;SDS011;5303;53.266;10.410;2022-10-17T06:35:00;5.00;;;4.37;;
10509;SDS011;5303;53.266;10.410;2022-10-17T06:37:29;7.03;;;4.50;;
10509;SDS011;5303;53.266;10.410;2022-10-17T06:39:55;5.87;;;4.50;;
10509;SDS011;5303;53.266;10.410;2022-10-17T06:42:20;4.77;;;4.17;;
10509;SDS011;5303;53.266;10.410;2022-10-17T06:44:45;5.40;;;4.67;;
10509;SDS011;5303;53.266;10.410;2022-10-17T06:47:10;5.87;;;5.27;;
10509;SDS011;5303;53.266;10.410;2022-10-17T06:49:36;4.53;;;4.07;;
10509;SDS011;5303;53.266;10.410;2022-10-17T06:52:01;5.10;;;4.57;;
10509;SDS011;5303;53.266;10.410;2022-10-17T06:54:26;7.87;;;4.53;;
10509;SDS011;5303;53.266;10.410;2022-10-17T06:56:52;6.53;;;4.23;;
10509;SDS011;5303;53.266;10.410;2022-10-17T06:59:17;5.10;;;4.60;;
10509;SDS011;5303;53.266;10.410;2022-10-17T07:01:43;5.60;;;4.37;;
10509;SDS011;5303;53.266;10.410;2022-10-17T07:04:08;5.43;;;4.40;;
10509;SDS011;5303;53.266;10.410;2022-10-17T07:06:33;5.40;;;4.70;;
10509;SDS011;5303;53.266;10.410;2022-10-17T07:08:59;5.77;;;4.30;;
10509;SDS011;5303;53.266;10.410;2022-10-17T07:11:26;5.30;;;4.00;;
10509;SDS011;5303;53.266;10.410;2022-10-17T07:13:51;5.67;;;4.30;;
10509;SDS011;5303;53.266;10.410;2022-10-17T07:16:17;5.57;;;4.27;;
10509;SDS011;5303;53.266;10.410;2022-10-17T07:18:42;5.23;;;4.67;;
10509;SDS011;5303;53.266;10.410;2022-10-17T07:21:08;5.53;;;4.20;;
10509;SDS011;5303;53.266;10.410;2022-10-17T07:23:34;4.73;;;4.13;;
10509;SDS011;5303;53.266;10.410;2022-10-17T07:26:01;4.30;;;3.90;;
10509;SDS011;5303;53.266;10.410;2022-10-17T07:28:31;5.80;;;4.77;;
10509;SDS011;5303;53.266;10.410;2022-10-17T07:31:08;4.87;;;4.37;;
10509;SDS011;5303;53.266;10.410;2022-10-17T07:33:35;5.20;;;3.90;;
10509;SDS011;5303;53.266;10.410;2022-10-17T07:36:00;4.10;;;3.70;;
10509;SDS011;5303;53.266;10.410;2022-10-17T07:38:27;4.73;;;3.57;;
10509;SDS011;5303;53.266;10.410;2022-10-17T07:40:53;4.33;;;3.67;;
10509;SDS011;5303;53.266;10.410;2022-10-17T07:43:20;7.27;;;3.97;;
10509;SDS011;5303;53.266;10.410;2022-10-17T07:45:45;5.97;;;3.70;;
10509;SDS011;5303;53.266;10.410;2022-10-17T07:48:10;6.37;;;3.57;;
10509;SDS011;5303;53.266;10.410;2022-10-17T07:50:35;4.00;;;3.60;;
10509;SDS011;5303;53.266;10.410;2022-10-17T07:53:01;6.80;;;4.20;;
10509;SDS011;5303;53.266;10.410;2022-10-17T07:55:26;4.93;;;3.83;;
10509;SDS011;5303;53.266;10.410;2022-10-17T07:57:51;5.17;;;3.70;;
10509;SDS011;5303;53.266;10.410;2022-10-17T08:00:17;4.70;;;3.43;;
10509;SDS011;5303;53.266;10.410;2022-10-17T08:02:42;4.47;;;3.67;;
10509;SDS011;5303;53.266;10.410;2022-10-17T08:05:07;5.77;;;3.60;;
10509;SDS011;5303;53.266;10.410;2022-10-17T08:07:33;4.37;;;3.60;;
10509;SDS011;5303;53.266;10.410;2022-10-17T08:09:58;4.17;;;3.77;;
10509;SDS011;5303;53.266;10.410;2022-10-17T08:12:23;5.37;;;3.87;;
10509;SDS011;5303;53.266;10.410;2022-10-17T08:14:49;7.63;;;4.30;;
10509;SDS011;5303;53.266;10.410;2022-10-17T08:17:15;6.43;;;4.13;;
10509;SDS011;5303;53.266;10.410;2022-10-17T08:19:40;7.83;;;3.70;;
10509;SDS011;5303;53.266;10.410;2022-10-17T08:22:05;5.17;;;3.50;;
10509;SDS011;5303;53.266;10.410;2022-10-17T08:24:31;6.53;;;3.13;;
10509;SDS011;5303;53.266;10.410;2022-10-17T08:26:56;3.40;;;3.10;;
10509;SDS011;5303;53.266;10.410;2022-10-17T08:29:22;7.87;;;3.53;;
10509;SDS011;5303;53.266;10.410;2022-10-17T08:31:48;4.93;;;3.23;;
10509;SDS011;5303;53.266;10.410;2022-10-17T08:34:13;3.77;;;2.70;;
10509;SDS011;5303;53.266;10.410;2022-10-17T08:36:39;3.47;;;3.17;;
10509;SDS011;5303;53.266;10.410;2022-10-17T08:39:05;3.27;;;2.97;;
10509;SDS011;5303;53.266;10.410;2022-10-17T08:47:02;5.30;;;3.00;;
10509;SDS011;5303;53.266;10.410;2022-10-17T08:54:49;3.87;;;3.23;;
10509;SDS011;5303;53.266;10.410;2022-10-17T08:57:16;4.60;;;3.10;;
10509;SDS011;5303;53.266;10.410;2022-10-17T08:59:42;3.07;;;2.63;;
10509;SDS011;5303;53.266;10.410;2022-10-17T09:02:15;4.03;;;3.20;;
10509;SDS011;5303;53.266;10.410;2022-10-17T09:05:04;5.67;;;2.70;;
10509;SDS011;5303;53.266;10.410;2022-10-17T09:07:38;7.33;;;2.93;;
10509;SDS011;5303;53.266;10.410;2022-10-17T09:10:14;3.17;;;2.80;;
10509;SDS011;5303;53.266;10.410;2022-10-17T09:15:56;4.27;;;2.70;;
10509;SDS011;5303;53.266;10.410;2022-10-17T09:18:45;4.13;;;3.10;;
10509;SDS011;5303;53.266;10.410;2022-10-17T09:21:23;2.83;;;2.50;;
10509;SDS011;5303;53.266;10.410;2022-10-17T09:23:56;3.50;;;2.60;;
10509;SDS011;5303;53.266;10.410;2022-10-17T09:26:25;4.50;;;2.60;;
10509;SDS011;5303;53.266;10.410;2022-10-17T09:28:52;6.40;;;3.00;;
10509;SDS011;5303;53.266;10.410;2022-10-17T09:31:31;4.13;;;2.80;;
10509;SDS011;5303;53.266;10.410;2022-10-17T09:34:07;4.60;;;3.03;;
10509;SDS011;5303;53.266;10.410;2022-10-17T09:36:36;4.63;;;2.93;;
10509;SDS011;5303;53.266;10.410;2022-10-17T09:39:22;6.70;;;3.00;;
10509;SDS011;5303;53.266;10.410;2022-10-17T09:41:53;5.47;;;2.93;;
10509;SDS011;5303;53.266;10.410;2022-10-17T09:44:27;3.10;;;2.80;;
10509;SDS011;5303;53.266;10.410;2022-10-17T09:50:04;5.40;;;3.20;;
10509;SDS011;5303;53.266;10.410;2022-10-17T09:52:39;4.17;;;2.50;;
10509;SDS011;5303;53.266;10.410;2022-10-17T09:55:19;4.33;;;2.97;;
10509;SDS011;5303;53.266;10.410;2022-10-17T09:57:50;4.47;;;2.70;;
10509;SDS011;5303;53.266;10.410;2022-10-17T10:00:21;4.07;;;2.90;;
10509;SDS011;5303;53.266;10.410;2022-10-17T10:02:49;3.40;;;3.10;;
10509;SDS011;5303;53.266;10.410;2022-10-17T10:05:15;3.90;;;3.07;;
10509;SDS011;5303;53.266;10.410;2022-10-17T10:07:43;8.57;;;4.00;;
10509;SDS011;5303;53.266;10.410;2022-10-17T10:10:25;3.83;;;3.00;;
10509;SDS011;5303;53.266;10.410;2022-10-17T10:13:09;3.83;;;2.90;;
10509;SDS011;5303;53.266;10.410;2022-10-17T10:15:45;5.30;;;2.70;;
10509;SDS011;5303;53.266;10.410;2022-10-17T10:23:28;4.80;;;2.93;;
10509;SDS011;5303;53.266;10.410;2022-10-17T10:25:55;8.03;;;3.40;;
10509;SDS011;5303;53.266;10.410;2022-10-17T10:28:24;4.87;;;3.43;;
10509;SDS011;5303;53.266;10.410;2022-10-17T10:30:52;3.87;;;2.63;;
10509;SDS011;5303;53.266;10.410;2022-10-17T10:33:24;5.30;;;3.10;;
10509;SDS011;5303;53.266;10.410;2022-10-17T10:36:40;6.57;;;3.13;;
10509;SDS011;5303;53.266;10.410;2022-10-17T10:38:51;4.37;;;3.10;;
10509;SDS011;5303;53.266;10.410;2022-10-17T10:41:19;5.03;;;2.70;;
10509;SDS011;5303;53.266;10.410;2022-10-17T10:43:45;3.87;;;3.00;;
10509;SDS011;5303;53.266;10.410;2022-10-17T10:51:16;7.93;;;3.00;;
10509;SDS011;5303;53.266;10.410;2022-10-17T10:53:50;5.77;;;3.20;;
10509;SDS011;5303;53.266;10.410;2022-10-17T10:56:38;5.07;;;3.50;;
10509;SDS011;5303;53.266;10.410;2022-10-17T10:59:09;4.67;;;2.90;;
10509;SDS011;5303;53.266;10.410;2022-10-17T11:01:51;3.80;;;3.20;;
10509;SDS011;5303;53.266;10.410;2022-10-17T11:12:53;6.40;;;3.30;;
10509;SDS011;5303;53.266;10.410;2022-10-17T11:17:51;6.33;;;3.40;;
10509;SDS011;5303;53.266;10.410;2022-10-17T11:20:29;6.23;;;3.47;;
10509;SDS011;5303;53.266;10.410;2022-10-17T11:23:01;5.07;;;3.20;;
10509;SDS011;5303;53.266;10.410;2022-10-17T11:25:38;5.37;;;2.97;;
10509;SDS011;5303;53.266;10.410;2022-10-17T11:28:13;5.77;;;3.13;;
10509;SDS011;5303;53.266;10.410;2022-10-17T11:30:45;5.57;;;3.03;;
10509;SDS011;5303;53.266;10.410;2022-10-17T11:33:14;4.67;;;2.83;;
10509;SDS011;5303;53.266;10.410;2022-10-17T11:35:46;4.63;;;3.20;;
10509;SDS011;5303;53.266;10.410;2022-10-17T11:41:12;4.77;;;3.20;;
10509;SDS011;5303;53.266;10.410;2022-10-17T11:46:18;6.00;;;3.60;;
10509;SDS011;5303;53.266;10.410;2022-10-17T11:51:40;6.03;;;3.33;;
10509;SDS011;5303;53.266;10.410;2022-10-17T12:02:16;4.63;;;3.77;;
10509;SDS011;5303;53.266;10.410;2022-10-17T12:04:59;4.13;;;3.03;;
10509;SDS011;5303;53.266;10.410;2022-10-17T12:07:33;5.33;;;2.83;;
10509;SDS011;5303;53.266;10.410;2022-10-17T12:10:18;4.77;;;3.37;;
10509;SDS011;5303;53.266;10.410;2022-10-17T12:12:51;5.60;;;3.50;;
10509;SDS011;5303;53.266;10.410;2022-10-17T12:18:10;7.60;;;3.77;;
10509;SDS011;5303;53.266;10.410;2022-10-17T12:20:39;9.43;;;3.77;;
10509;SDS011;5303;53.266;10.410;2022-10-17T12:25:36;6.37;;;3.53;;
10509;SDS011;5303;53.266;10.410;2022-10-17T12:30:53;5.77;;;3.63;;
10509;SDS011;5303;53.266;10.410;2022-10-17T12:33:21;5.57;;;3.47;;
10509;SDS011;5303;53.266;10.410;2022-10-17T12:36:36;4.70;;;3.90;;
10509;SDS011;5303;53.266;10.410;2022-10-17T12:38:51;6.30;;;3.90;;
10509;SDS011;5303;53.266;10.410;2022-10-17T12:49:40;5.10;;;3.73;;
10509;SDS011;5303;53.266;10.410;2022-10-17T12:54:44;7.40;;;3.73;;
10509;SDS011;5303;53.266;10.410;2022-10-17T12:57:13;8.00;;;4.13;;
10509;SDS011;5303;53.266;10.410;2022-10-17T13:00:00;4.60;;;3.40;;
10509;SDS011;5303;53.266;10.410;2022-10-17T13:02:28;5.00;;;3.50;;
10509;SDS011;5303;53.266;10.410;2022-10-17T13:04:58;5.93;;;3.90;;
10509;SDS011;5303;53.266;10.410;2022-10-17T13:07:30;4.30;;;3.90;;
10509;SDS011;5303;53.266;10.410;2022-10-17T13:09:58;5.87;;;3.60;;
10509;SDS011;5303;53.266;10.410;2022-10-17T13:12:28;6.70;;;4.10;;
10509;SDS011;5303;53.266;10.410;2022-10-17T13:14:57;4.40;;;3.83;;
10509;SDS011;5303;53.266;10.410;2022-10-17T13:17:24;7.07;;;4.47;;
10509;SDS011;5303;53.266;10.410;2022-10-17T13:19:52;7.53;;;4.30;;
10509;SDS011;5303;53.266;10.410;2022-10-17T13:22:23;5.27;;;3.73;;
10509;SDS011;5303;53.266;10.410;2022-10-17T13:24:50;4.43;;;3.70;;
10509;SDS011;5303;53.266;10.410;2022-10-17T13:27:30;5.47;;;4.00;;
10509;SDS011;5303;53.266;10.410;2022-10-17T13:29:58;6.83;;;4.27;;
10509;SDS011;5303;53.266;10.410;2022-10-17T13:32:33;6.03;;;3.90;;
10509;SDS011;5303;53.266;10.410;2022-10-17T13:35:10;9.30;;;4.33;;
10509;SDS011;5303;53.266;10.410;2022-10-17T13:37:38;5.77;;;4.00;;
10509;SDS011;5303;53.266;10.410;2022-10-17T13:40:05;5.37;;;3.77;;
10509;SDS011;5303;53.266;10.410;2022-10-17T13:42:38;6.70;;;3.73;;
10509;SDS011;5303;53.266;10.410;2022-10-17T13:45:11;5.17;;;4.07;;
10509;SDS011;5303;53.266;10.410;2022-10-17T13:47:42;7.77;;;3.67;;
10509;SDS011;5303;53.266;10.410;2022-10-17T13:50:12;6.73;;;4.27;;
10509;SDS011;5303;53.266;10.410;2022-10-17T13:52:44;7.93;;;4.20;;
10509;SDS011;5303;53.266;10.410;2022-10-17T13:55:13;10.07;;;3.93;;
10509;SDS011;5303;53.266;10.410;2022-10-17T13:57:41;7.17;;;4.20;;
10509;SDS011;5303;53.266;10.410;2022-10-17T14:00:09;5.93;;;4.63;;
10509;SDS011;5303;53.266;10.410;2022-10-17T14:02:45;8.80;;;4.67;;
10509;SDS011;5303;53.266;10.410;2022-10-17T14:05:16;8.50;;;4.40;;
10509;SDS011;5303;53.266;10.410;2022-10-17T14:07:44;6.60;;;4.80;;
10509;SDS011;5303;53.266;10.410;2022-10-17T14:10:16;8.20;;;4.83;;
10509;SDS011;5303;53.266;10.410;2022-10-17T14:12:47;6.23;;;4.77;;
10509;SDS011;5303;53.266;10.410;2022-10-17T14:15:17;6.50;;;5.27;;
10509;SDS011;5303;53.266;10.410;2022-10-17T14:17:43;6.13;;;4.73;;
10509;SDS011;5303;53.266;10.410;2022-10-17T14:20:17;6.47;;;5.03;;
10509;SDS011;5303;53.266;10.410;2022-10-17T14:22:43;6.77;;;4.90;;
10509;SDS011;5303;53.266;10.410;2022-10-17T14:28:15;7.80;;;5.73;;
10509;SDS011;5303;53.266;10.410;2022-10-17T14:30:44;7.23;;;6.03;;
10509;SDS011;5303;53.266;10.410;2022-10-17T14:33:21;6.57;;;5.63;;
10509;SDS011;5303;53.266;10.410;2022-10-17T14:35:52;6.20;;;5.60;;
10509;SDS011;5303;53.266;10.410;2022-10-17T14:38:19;7.57;;;6.10;;
10509;SDS011;5303;53.266;10.410;2022-10-17T14:43:24;8.50;;;6.30;;
10509;SDS011;5303;53.266;10.410;2022-10-17T14:45:52;6.53;;;5.93;;
10509;SDS011;5303;53.266;10.410;2022-10-17T14:48:21;6.50;;;5.90;;
10509;SDS011;5303;53.266;10.410;2022-10-17T14:53:34;10.80;;;7.20;;
10509;SDS011;5303;53.266;10.410;2022-10-17T14:56:02;8.30;;;6.87;;
10509;SDS011;5303;53.266;10.410;2022-10-17T14:58:32;8.10;;;6.50;;
10509;SDS011;5303;53.266;10.410;2022-10-17T15:04:19;7.20;;;6.50;;
10509;SDS011;5303;53.266;10.410;2022-10-17T15:06:45;7.60;;;6.80;;
10509;SDS011;5303;53.266;10.410;2022-10-17T15:09:18;7.93;;;6.37;;
10509;SDS011;5303;53.266;10.410;2022-10-17T15:11:43;8.20;;;5.90;;
10509;SDS011;5303;53.266;10.410;2022-10-17T15:14:08;7.87;;;5.40;;
10509;SDS011;5303;53.266;10.410;2022-10-17T15:16:34;7.27;;;5.57;;
10509;SDS011;5303;53.266;10.410;2022-10-17T15:18:59;8.30;;;5.30;;
10509;SDS011;5303;53.266;10.410;2022-10-17T15:21:26;8.37;;;5.83;;
10509;SDS011;5303;53.266;10.410;2022-10-17T15:23:53;5.90;;;5.30;;
10509;SDS011;5303;53.266;10.410;2022-10-17T15:26:19;10.33;;;5.90;;
10509;SDS011;5303;53.266;10.410;2022-10-17T15:28:46;6.43;;;5.57;;
10509;SDS011;5303;53.266;10.410;2022-10-17T15:31:17;10.07;;;5.73;;
10509;SDS011;5303;53.266;10.410;2022-10-17T15:33:44;7.90;;;5.60;;
10509;SDS011;5303;53.266;10.410;2022-10-17T15:36:47;8.87;;;6.17;;
10509;SDS011;5303;53.266;10.410;2022-10-17T15:39:03;6.37;;;5.70;;
10509;SDS011;5303;53.266;10.410;2022-10-17T15:41:30;6.13;;;5.53;;
10509;SDS011;5303;53.266;10.410;2022-10-17T15:43:56;8.63;;;6.10;;
10509;SDS011;5303;53.266;10.410;2022-10-17T15:46:23;7.47;;;6.70;;
10509;SDS011;5303;53.266;10.410;2022-10-17T15:48:50;9.60;;;5.83;;
10509;SDS011;5303;53.266;10.410;2022-10-17T15:54:38;9.17;;;7.00;;
10509;SDS011;5303;53.266;10.410;2022-10-17T15:57:03;8.73;;;6.37;;
10509;SDS011;5303;53.266;10.410;2022-10-17T15:59:30;7.63;;;6.40;;
10509;SDS011;5303;53.266;10.410;2022-10-17T16:01:58;8.43;;;6.57;;
10509;SDS011;5303;53.266;10.410;2022-10-17T16:04:24;10.43;;;6.80;;
10509;SDS011;5303;53.266;10.410;2022-10-17T16:06:51;7.83;;;7.13;;
10509;SDS011;5303;53.266;10.410;2022-10-17T16:09:16;7.43;;;6.37;;
10509;SDS011;5303;53.266;10.410;2022-10-17T16:11:42;7.00;;;6.10;;
10509;SDS011;5303;53.266;10.410;2022-10-17T16:14:09;7.17;;;6.20;;
10509;SDS011;5303;53.266;10.410;2022-10-17T16:16:36;7.23;;;6.53;;
10509;SDS011;5303;53.266;10.410;2022-10-17T16:19:01;6.93;;;6.33;;
10509;SDS011;5303;53.266;10.410;2022-10-17T16:21:28;8.93;;;7.67;;
10509;SDS011;5303;53.266;10.410;2022-10-17T16:23:56;8.77;;;7.87;;
10509;SDS011;5303;53.266;10.410;2022-10-17T16:26:22;7.87;;;7.00;;
10509;SDS011;5303;53.266;10.410;2022-10-17T16:28:48;9.30;;;7.70;;
10509;SDS011;5303;53.266;10.410;2022-10-17T16:33:50;8.70;;;7.50;;
10509;SDS011;5303;53.266;10.410;2022-10-17T16:36:17;7.80;;;7.00;;
10509;SDS011;5303;53.266;10.410;2022-10-17T16:38:43;10.97;;;8.10;;
10509;SDS011;5303;53.266;10.410;2022-10-17T16:41:31;8.37;;;7.40;;
10509;SDS011;5303;53.266;10.410;2022-10-17T16:44:00;8.00;;;7.20;;
10509;SDS011;5303;53.266;10.410;2022-10-17T16:46:28;9.53;;;7.93;;
10509;SDS011;5303;53.266;10.410;2022-10-17T16:48:54;8.70;;;7.80;;
10509;SDS011;5303;53.266;10.410;2022-10-17T16:51:21;10.63;;;8.27;;
10509;SDS011;5303;53.266;10.410;2022-10-17T16:53:48;8.80;;;7.90;;
10509;SDS011;5303;53.266;10.410;2022-10-17T16:56:17;8.77;;;7.83;;
10509;SDS011;5303;53.266;10.410;2022-10-17T16:58:44;8.60;;;7.67;;
10509;SDS011;5303;53.266;10.410;2022-10-17T17:01:11;9.30;;;8.10;;
10509;SDS011;5303;53.266;10.410;2022-10-17T17:03:39;10.13;;;9.03;;
10509;SDS011;5303;53.266;10.410;2022-10-17T17:06:07;9.87;;;8.87;;
10509;SDS011;5303;53.266;10.410;2022-10-17T17:08:35;9.03;;;8.13;;
10509;SDS011;5303;53.266;10.410;2022-10-17T17:11:07;9.60;;;8.47;;
10509;SDS011;5303;53.266;10.410;2022-10-17T17:13:33;9.77;;;8.73;;
10509;SDS011;5303;53.266;10.410;2022-10-17T17:16:06;11.00;;;8.50;;